Detall de PIREP

Printer-friendly versionPDF version

[2012/10/09 11:40:00]
Flight IATA:CT0001
Pilot Number:012
Company ICAO:CAT
Aircraft Type:A343/E
PAX:295
Departing Airport: LEBL
Destination Airport: LEPA
Alternate Airport:LEBL
Online: VATSIM
Route:LARPA B31 TOLSO
Flight Level:F190
No Slew and time accel
No pause
Crash detect
Detect pilot in Cockpit between each 30 and 45 minutes
11:40 Zero fuel Weight: 348587 Lbs, Fuel Weight: 65427 Lbs
11:40 VATSIM:LEBL 091630Z 20007KT 9999 SCT018 25/21 Q1014 NOSIG
11:40 VATSIM:LEPA 091630Z 24009KT 9999 FEW030 25/21 Q1015 NOSIG
11:40 VOICE CATALONIAN / TESTING AIRCRAFT
11:41 Parking Brakes off
11:49 Take-off
11:49 Take off Weight: 412070 Lbs
11:49 Wind: 202º @ 007 Knots Heading: 243º
11:49 POS N41º 17´ 06´´ E002º 04´ 55´´
11:49 Gear Up: 207 Knots
11:49 Flaps:2 at 207 Knots
11:49 Flaps:1 at 214 Knots
11:49 Flaps:0 at 236 Knots
12:04 Wind:278º@014 Knots Heading: 121º Ground Speed: 301 Knots Altitude 9366 ft
12:09 Flaps:1 at 225 Knots
12:10 Flaps:3 at 161 Knots
12:11 Flaps:4 at 144 Knots
12:11 Gear Down: 145 Knots
12:11 Flaps:5 at 144 Knots
12:15 TouchDown:Rate -384 ft/min Speed: 134 Knots
12:16 VATSIM:LEPA 091700Z 25006KT 9999 FEW030 25/20 Q1015 NOSIG
12:16 Land
12:16 Wind:242º@009 Knots
12:16 Heading: 237º
12:16 Flight Duration: 00:27
12:16 Landing Weight: 405186 Lbs
12:16 POS N39º 32´ 57´´ E002º 44´ 54´´
12:18 Parking brakes on
12:18 Block to Block Duration: 00:37
12:18 Final Fuel: 56223 Lbls
12:18 Spent Fuel: 9204 Lbls
12:18 Flight Length: 130 NM
12:18 TOD Land Length: 130 NM

Exportar CSV

Powered by Drupal - Modified by Danger4k